Houston's Hourly Summary for Thursday, July 5, 2018
Hour Temp
(f)
RH
(%)
Solar Rad.
(MJ/m2)
Rainfall
(in)
Wind
(mph)
7/5/2018 12:00 AM 71 91 0 0 0
7/5/2018 1:00 AM 71 93 0 0 0
7/5/2018 2:00 AM 72 93 0 0 0
7/5/2018 3:00 AM 73 92 0 0 0
7/5/2018 4:00 AM 73 93 0 0 0
7/5/2018 5:00 AM 72 94 0 0 0
7/5/2018 6:00 AM 71 95 0 0 0
7/5/2018 7:00 AM 71 95 0.05 0 0
7/5/2018 8:00 AM 74 83 0.53 0 0
7/5/2018 9:00 AM 79 75 1.15 0 0
7/5/2018 10:00 AM 83 65 1.67 0 0
7/5/2018 11:00 AM 84 62 2.12 0 2.49
7/5/2018 12:00 PM 86 59 2.52 0 4.52
7/5/2018 1:00 PM 87 55 2.24 0 4.66
7/5/2018 2:00 PM 88 53 2.4 0 4.67
7/5/2018 3:00 PM 79 59 0.35 0.16 4.01
7/5/2018 4:00 PM 74 87 0.33 0.16 2.53
7/5/2018 5:00 PM 80 66 1.77 0.11 0.15
7/5/2018 6:00 PM 87 55 1.84 0.09 1.5
7/5/2018 7:00 PM 86 51 0.82 0.11 0.83
7/5/2018 8:00 PM 81 74 0.15 0.26 0
7/5/2018 9:00 PM 80 76 0.02 0.29 0
7/5/2018 10:00 PM 80 65 0 0.19 2.03
7/5/2018 11:00 PM 78 70 0 0.12 2.84
Data Summary 78 75 17.96 1.49 1.26